createdAt,value
2018-03-03T00:00:39.199Z,93265.41
2018-03-03T00:03:05.827Z,93227.04
2018-03-03T00:05:32.408Z,93205.52
2018-03-03T00:07:58.969Z,93196.86
2018-03-03T00:10:25.573Z,93217.45
2018-03-03T00:12:52.144Z,93218.02
2018-03-03T00:15:18.706Z,93211.56
2018-03-03T00:17:45.346Z,93224.38
2018-03-03T00:20:11.938Z,93234.06
2018-03-03T00:22:38.496Z,93225.52
2018-03-03T00:25:05.093Z,93222.83
2018-03-03T00:27:31.673Z,93216.84
2018-03-03T00:29:58.235Z,93226.95
2018-03-03T00:32:24.804Z,93235.84
2018-03-03T00:34:51.368Z,93220.92
2018-03-03T00:37:17.948Z,93243.03
2018-03-03T00:39:44.526Z,93243.01
2018-03-03T00:42:11.128Z,93235.08
2018-03-03T00:44:37.738Z,93269.56
2018-03-03T00:47:04.365Z,93254.70
2018-03-03T00:49:30.938Z,93244.91
2018-03-03T00:51:57.528Z,93243.80
2018-03-03T00:54:24.092Z,93259.94
2018-03-03T00:56:50.656Z,93295.11
2018-03-03T00:59:17.316Z,93313.48
2018-03-03T01:01:43.890Z,93307.66
2018-03-03T01:04:10.532Z,93297.83
2018-03-03T01:06:37.114Z,93321.31
2018-03-03T01:09:03.655Z,93291.97
2018-03-03T01:11:30.268Z,93322.20
2018-03-03T01:13:56.843Z,93330.88
2018-03-03T01:16:23.475Z,93322.20
2018-03-03T01:18:50.041Z,93328.84
2018-03-03T01:21:16.646Z,93333.41
2018-03-03T01:23:43.247Z,93318.30
2018-03-03T01:26:09.829Z,93315.72
2018-03-03T01:28:36.450Z,93300.42
2018-03-03T01:31:02.959Z,93315.87
2018-03-03T01:33:29.546Z,93297.80
2018-03-03T01:35:56.152Z,93301.11
2018-03-03T01:38:22.720Z,93304.71
2018-03-03T01:40:49.287Z,93306.67
2018-03-03T01:43:15.889Z,93321.48
2018-03-03T01:45:42.461Z,93315.72
2018-03-03T01:48:09.093Z,93322.43
2018-03-03T01:50:35.663Z,93310.64
2018-03-03T01:53:02.261Z,93320.92
2018-03-03T01:55:28.835Z,93320.83
2018-03-03T01:57:55.400Z,93348.80
2018-03-03T02:00:21.982Z,93377.66
2018-03-03T02:02:48.539Z,93376.05
2018-03-03T02:05:15.104Z,93366.41
2018-03-03T02:07:41.688Z,93357.90
2018-03-03T02:13:03.922Z,93297.31
2018-03-03T02:15:30.544Z,93302.94
2018-03-03T02:17:57.096Z,93301.99
2018-03-03T02:20:23.918Z,93301.23
2018-03-03T02:22:50.486Z,93320.69
2018-03-03T02:25:17.092Z,93317.65
2018-03-03T02:27:43.665Z,93315.39
2018-03-03T02:30:10.238Z,93327.31
2018-03-03T02:32:36.870Z,93314.44
2018-03-03T02:35:03.491Z,93319.25
2018-03-03T02:37:30.048Z,93304.55
2018-03-03T02:39:56.657Z,93291.89
2018-03-03T02:42:23.210Z,93291.11
2018-03-03T02:44:49.772Z,93314.16
2018-03-03T02:47:16.373Z,93298.84
2018-03-03T02:49:42.909Z,93276.14
2018-03-03T02:52:09.466Z,93327.11
2018-03-03T02:54:36.077Z,93319.96
2018-03-03T02:57:02.699Z,93325.20
2018-03-03T02:59:29.350Z,93329.79
2018-03-03T03:01:55.932Z,93322.95
2018-03-03T03:04:22.543Z,93331.83
2018-03-03T03:06:49.117Z,93315.34
2018-03-03T03:09:15.696Z,93309.36
2018-03-03T03:11:42.312Z,93323.51
2018-03-03T03:14:08.874Z,93304.48
2018-03-03T03:16:35.463Z,93310.57
2018-03-03T03:19:02.005Z,93303.23
2018-03-03T03:21:28.559Z,93310.25
2018-03-03T03:23:55.126Z,93284.80
2018-03-03T03:26:21.685Z,93290.72
2018-03-03T03:28:48.247Z,93298.09
2018-03-03T03:31:14.815Z,93268.72
2018-03-03T03:33:41.372Z,93302.61
2018-03-03T03:36:07.975Z,93310.11
2018-03-03T03:38:34.541Z,93303.11
2018-03-03T03:41:01.135Z,93309.49
2018-03-03T03:43:27.734Z,93302.09
2018-03-03T03:45:54.341Z,93316.95
2018-03-03T03:48:20.920Z,93310.90
2018-03-03T03:50:47.490Z,93302.19
2018-03-03T03:53:14.060Z,93310.73
2018-03-03T03:55:40.663Z,93308.84
2018-03-03T03:58:07.367Z,93295.70
2018-03-03T04:00:34.116Z,93296.88
2018-03-03T04:03:00.687Z,93268.27
2018-03-03T04:05:27.246Z,93301.01
2018-03-03T04:07:53.851Z,93307.39
2018-03-03T04:10:20.418Z,93317.28
2018-03-03T04:12:47.030Z,93317.91
2018-03-03T04:15:13.648Z,93318.56
2018-03-03T04:17:40.209Z,93315.70
2018-03-03T04:20:06.776Z,93301.17
2018-03-03T04:22:33.341Z,93291.48
2018-03-03T04:24:59.951Z,93310.41
2018-03-03T04:27:26.533Z,93311.58
2018-03-03T04:29:53.152Z,93317.28
2018-03-03T04:32:19.746Z,93316.06
2018-03-03T04:34:46.308Z,93317.80
2018-03-03T04:37:12.907Z,93318.42
2018-03-03T04:39:39.505Z,93329.11
2018-03-03T04:42:06.111Z,93325.44
2018-03-03T04:44:32.738Z,93325.83
2018-03-03T04:46:59.337Z,93318.13
2018-03-03T04:49:25.904Z,93339.03
2018-03-03T04:51:52.546Z,93339.42
2018-03-03T04:54:19.106Z,93314.04
2018-03-03T04:56:45.712Z,93344.77
2018-03-03T04:59:12.315Z,93339.88
2018-03-03T05:01:38.985Z,93348.47
2018-03-03T05:04:05.573Z,93332.64
2018-03-03T05:06:32.149Z,93342.24
2018-03-03T05:08:58.787Z,93352.17
2018-03-03T05:11:25.384Z,93353.38
2018-03-03T05:13:51.992Z,93357.02
2018-03-03T05:18:45.149Z,93353.05
2018-03-03T05:21:11.723Z,93365.66
2018-03-03T05:23:38.326Z,93356.52
2018-03-03T05:26:04.929Z,93349.64
2018-03-03T05:28:31.486Z,93355.37
2018-03-03T05:30:58.047Z,93376.44
2018-03-03T05:33:24.658Z,93377.00
2018-03-03T05:35:51.251Z,93377.63
2018-03-03T05:38:17.956Z,93392.53
2018-03-03T05:40:44.517Z,93403.18
2018-03-03T05:43:11.079Z,93403.51
2018-03-03T05:45:37.720Z,93398.63
2018-03-03T05:48:04.388Z,93410.92
2018-03-03T05:50:30.944Z,93405.91
2018-03-03T05:52:57.551Z,93423.24
2018-03-03T05:55:24.121Z,93429.34
2018-03-03T05:57:50.728Z,93435.11
2018-03-03T06:00:17.305Z,93431.70
2018-03-03T06:02:43.855Z,93431.05
2018-03-03T06:05:10.474Z,93437.59
2018-03-03T06:07:37.205Z,93446.74
2018-03-03T06:10:03.799Z,93440.84
2018-03-03T06:12:30.418Z,93455.80
2018-03-03T06:14:57.030Z,93443.66
2018-03-03T06:17:23.643Z,93450.35
2018-03-03T06:19:50.216Z,93457.53
2018-03-03T06:22:16.820Z,93457.00
2018-03-03T06:24:43.396Z,93460.22
2018-03-03T06:27:10.015Z,93468.34
2018-03-03T06:29:36.590Z,93469.30
2018-03-03T06:32:03.272Z,93455.66
2018-03-03T06:34:29.878Z,93467.63
2018-03-03T06:36:56.477Z,93456.41
2018-03-03T06:39:23.042Z,93468.58
2018-03-03T06:41:49.656Z,93468.48
2018-03-03T06:44:16.260Z,93478.22
2018-03-03T06:46:42.865Z,93469.82
2018-03-03T06:49:09.422Z,93483.13
2018-03-03T06:51:36.229Z,93488.81
2018-03-03T06:54:02.833Z,93493.17
2018-03-03T06:56:29.397Z,93494.02
2018-03-03T06:58:56.005Z,93483.53
2018-03-03T07:01:22.575Z,93493.07
2018-03-03T07:03:49.188Z,93487.86
2018-03-03T07:06:15.776Z,93493.63
2018-03-03T07:08:42.387Z,93507.86
2018-03-03T07:11:08.943Z,93501.83
2018-03-03T07:13:35.537Z,93506.81
2018-03-03T07:16:02.280Z,93512.02
2018-03-03T07:18:28.816Z,93510.16
2018-03-03T07:20:55.371Z,93520.52
2018-03-03T07:23:21.984Z,93524.05
2018-03-03T07:25:48.563Z,93535.89
2018-03-03T07:28:15.119Z,93538.48
2018-03-03T07:30:41.718Z,93539.83
2018-03-03T07:33:08.315Z,93549.87
2018-03-03T07:35:34.880Z,93541.48
2018-03-03T07:38:01.430Z,93552.00
2018-03-03T07:40:28.041Z,93553.31
2018-03-03T07:42:54.667Z,93552.76
2018-03-03T07:45:21.245Z,93546.59
2018-03-03T07:47:47.812Z,93559.55
2018-03-03T07:50:14.460Z,93558.44
2018-03-03T07:52:41.027Z,93554.95
2018-03-03T07:55:07.699Z,93545.58
2018-03-03T07:57:34.314Z,93545.08
2018-03-03T08:00:00.917Z,93553.42
2018-03-03T08:02:27.475Z,93551.45
2018-03-03T08:04:54.084Z,93550.56
2018-03-03T08:07:20.645Z,93546.03
2018-03-03T08:09:47.269Z,93541.44
2018-03-03T08:12:13.827Z,93531.00
2018-03-03T08:14:40.384Z,93531.84
2018-03-03T08:17:06.986Z,93533.81
2018-03-03T08:19:33.553Z,93542.92
2018-03-03T08:22:00.148Z,93534.91
2018-03-03T08:24:26.743Z,93539.30
2018-03-03T08:26:53.305Z,93545.18
2018-03-03T08:29:19.877Z,93551.64
2018-03-03T08:31:46.478Z,93539.42
2018-03-03T08:34:13.058Z,93552.41
2018-03-03T08:36:39.659Z,93551.83
2018-03-03T08:39:06.507Z,93557.05
2018-03-03T08:41:33.124Z,93558.02
2018-03-03T08:43:59.678Z,93562.52
2018-03-03T08:46:26.242Z,93555.37
2018-03-03T08:48:52.844Z,93569.45
2018-03-03T08:51:19.435Z,93568.06
2018-03-03T08:53:45.960Z,93566.78
2018-03-03T08:56:12.568Z,93585.15
2018-03-03T08:58:39.219Z,93561.17
2018-03-03T09:01:05.788Z,93576.90
2018-03-03T09:03:32.394Z,93574.20
2018-03-03T09:05:59.048Z,93572.73
2018-03-03T09:08:25.612Z,93531.80
2018-03-03T09:10:52.167Z,93586.53
2018-03-03T09:13:18.776Z,93566.50
2018-03-03T09:15:45.378Z,93580.03
2018-03-03T09:18:11.992Z,93576.50
2018-03-03T09:20:38.602Z,93584.02
2018-03-03T09:23:05.213Z,93577.63
2018-03-03T09:25:31.796Z,93585.63
2018-03-03T09:27:58.385Z,93581.52
2018-03-03T09:30:24.975Z,93585.95
2018-03-03T09:32:51.604Z,93584.09
2018-03-03T09:35:18.222Z,93582.13
2018-03-03T09:37:44.787Z,93579.38
2018-03-03T09:40:11.355Z,93570.79
2018-03-03T09:42:37.971Z,93571.13
2018-03-03T09:45:04.525Z,93575.12
2018-03-03T09:47:31.128Z,93573.44
2018-03-03T09:49:57.689Z,93559.51
2018-03-03T09:52:24.243Z,93578.75
2018-03-03T09:54:50.858Z,93576.05
2018-03-03T09:57:17.461Z,93573.64
2018-03-03T09:59:44.061Z,93571.90
2018-03-03T10:02:10.622Z,93569.54
2018-03-03T10:04:37.237Z,93573.45
2018-03-03T10:07:03.817Z,93575.64
2018-03-03T10:09:30.398Z,93567.70
2018-03-03T10:11:56.986Z,93568.50
2018-03-03T10:14:23.581Z,93570.20
2018-03-03T10:16:50.171Z,93562.00
2018-03-03T10:19:16.725Z,93570.20
2018-03-03T10:21:43.447Z,93560.77
2018-03-03T10:24:10.004Z,93566.47
2018-03-03T10:26:36.556Z,93566.75
2018-03-03T10:29:03.170Z,93562.48
2018-03-03T10:31:29.779Z,93567.94
2018-03-03T10:33:56.348Z,93568.27
2018-03-03T10:36:22.947Z,93559.87
2018-03-03T10:38:49.556Z,93569.63
2018-03-03T10:41:16.108Z,93554.06
2018-03-03T10:43:42.726Z,93558.22
2018-03-03T10:46:09.288Z,93545.52
2018-03-03T10:48:35.846Z,93543.00
2018-03-03T10:51:03.457Z,93547.52
2018-03-03T10:53:30.019Z,93534.66
2018-03-03T10:55:56.580Z,93528.73
2018-03-03T10:58:23.213Z,93537.87
2018-03-03T11:00:49.818Z,93534.84
2018-03-03T11:03:16.386Z,93537.59
2018-03-03T11:05:42.991Z,93523.05
2018-03-03T11:08:09.550Z,93533.15
2018-03-03T11:10:36.127Z,93528.94
2018-03-03T11:13:02.768Z,93527.53
2018-03-03T11:15:29.384Z,93524.67
2018-03-03T11:17:55.947Z,93499.56
2018-03-03T11:20:22.557Z,93506.45
2018-03-03T11:22:49.176Z,93510.22
2018-03-03T11:25:15.730Z,93510.64
2018-03-03T11:27:42.335Z,93502.97
2018-03-03T11:30:08.932Z,93498.19
2018-03-03T11:32:35.542Z,93489.60
2018-03-03T11:35:02.140Z,93485.75
2018-03-03T11:37:28.751Z,93490.83
2018-03-03T11:39:55.378Z,93480.52
2018-03-03T11:42:21.940Z,93481.56
2018-03-03T11:44:48.543Z,93471.11
2018-03-03T11:47:15.153Z,93472.80
2018-03-03T11:49:41.712Z,93475.55
2018-03-03T11:52:08.272Z,93467.80
2018-03-03T11:54:34.874Z,93464.94
2018-03-03T11:57:01.439Z,93464.32
2018-03-03T11:59:28.060Z,93460.73
2018-03-03T12:01:54.620Z,93468.98
2018-03-03T12:04:21.186Z,93468.44
2018-03-03T12:06:47.780Z,93474.83
2018-03-03T12:09:14.346Z,93475.23
2018-03-03T12:11:40.957Z,93476.69
2018-03-03T12:14:07.599Z,93472.81
2018-03-03T12:16:34.155Z,93474.06
2018-03-03T12:19:00.752Z,93480.73
2018-03-03T12:21:27.357Z,93482.53
2018-03-03T12:23:53.979Z,93475.79
2018-03-03T12:26:20.602Z,93479.61
2018-03-03T12:28:47.160Z,93479.66
2018-03-03T12:31:13.725Z,93472.71
2018-03-03T12:33:40.343Z,93476.25
2018-03-03T12:36:06.909Z,93473.36
2018-03-03T12:38:33.465Z,93488.28
2018-03-03T12:41:00.067Z,93485.11
2018-03-03T12:43:26.624Z,93481.95
2018-03-03T12:45:53.227Z,93484.16
2018-03-03T12:48:19.840Z,93498.59
2018-03-03T12:50:46.400Z,93498.01
2018-03-03T12:53:13.058Z,93493.09
2018-03-03T12:55:39.657Z,93501.02
2018-03-03T12:58:06.218Z,93506.63
2018-03-03T13:00:32.863Z,93503.97
2018-03-03T13:02:59.422Z,93495.96
2018-03-03T13:05:25.979Z,93500.48
2018-03-03T13:07:52.580Z,93497.95
2018-03-03T13:10:19.186Z,93502.45
2018-03-03T13:12:45.820Z,93507.39
2018-03-03T13:15:12.344Z,93511.38
2018-03-03T13:17:38.947Z,93522.33
2018-03-03T13:20:05.503Z,93508.63
2018-03-03T13:22:32.074Z,93515.08
2018-03-03T13:24:58.680Z,93531.82
2018-03-03T13:27:25.268Z,93521.66
2018-03-03T13:29:51.868Z,93516.91
2018-03-03T13:32:18.429Z,93517.78
2018-03-03T13:34:45.028Z,93520.41
2018-03-03T13:37:11.640Z,93534.00
2018-03-03T13:39:38.245Z,93515.75
2018-03-03T13:42:04.889Z,93523.55
2018-03-03T13:44:31.452Z,93521.48
2018-03-03T13:46:58.049Z,93506.95
2018-03-03T13:49:24.612Z,93513.02
2018-03-03T13:51:51.208Z,93521.92
2018-03-03T13:54:17.767Z,93498.98
2018-03-03T13:56:44.372Z,93508.50
2018-03-03T13:59:10.941Z,93518.72
2018-03-03T14:01:37.497Z,93490.95
2018-03-03T14:04:04.116Z,93477.73
2018-03-03T14:06:30.681Z,93503.02
2018-03-03T14:08:57.272Z,93496.34
2018-03-03T14:11:23.896Z,93501.00
2018-03-03T14:13:50.446Z,93511.11
2018-03-03T14:16:17.048Z,93514.59
2018-03-03T14:18:43.658Z,93512.45
2018-03-03T14:21:10.229Z,93513.01
2018-03-03T14:23:36.788Z,93517.11
2018-03-03T14:26:03.420Z,93527.66
2018-03-03T14:28:29.978Z,93528.34
2018-03-03T14:30:56.538Z,93518.95
2018-03-03T14:33:23.142Z,93541.91
2018-03-03T14:35:49.749Z,93521.92
2018-03-03T14:38:16.337Z,93518.56
2018-03-03T14:40:42.938Z,93497.29
2018-03-03T14:43:09.543Z,93504.77
2018-03-03T14:45:36.160Z,93492.87
2018-03-03T14:48:02.718Z,93509.03
2018-03-03T14:50:29.276Z,93520.88
2018-03-03T14:52:55.905Z,93518.17
2018-03-03T14:55:22.542Z,93507.84
2018-03-03T14:57:49.198Z,93517.96
2018-03-03T15:00:15.785Z,93512.68
2018-03-03T15:02:42.365Z,93508.92
2018-03-03T15:05:08.973Z,93508.69
2018-03-03T15:07:35.533Z,93511.11
2018-03-03T15:10:02.185Z,93519.92
2018-03-03T15:12:28.746Z,93502.24
2018-03-03T15:14:55.385Z,93496.57
2018-03-03T15:17:22.002Z,93519.47
2018-03-03T15:19:48.656Z,93516.89
2018-03-03T15:22:15.200Z,93521.05
2018-03-03T15:24:41.766Z,93517.96
2018-03-03T15:27:08.374Z,93528.51
2018-03-03T15:29:35.001Z,93532.95
2018-03-03T15:32:01.577Z,93518.91
2018-03-03T15:34:28.171Z,93522.04
2018-03-03T15:36:54.774Z,93523.55
2018-03-03T15:39:21.468Z,93543.31
2018-03-03T15:41:47.948Z,93530.91
2018-03-03T15:44:14.558Z,93522.95
2018-03-03T15:46:41.127Z,93549.75
2018-03-03T15:49:07.762Z,93533.88
2018-03-03T15:51:34.375Z,93548.29
2018-03-03T15:54:00.933Z,93543.88
2018-03-03T15:56:27.523Z,93546.48
2018-03-03T15:58:54.104Z,93545.67
2018-03-03T16:01:20.674Z,93553.69
2018-03-03T16:03:47.273Z,93542.09
2018-03-03T16:06:13.852Z,93553.73
2018-03-03T16:08:40.459Z,93565.68
2018-03-03T16:11:07.030Z,93541.39
2018-03-03T16:13:33.589Z,93547.66
2018-03-03T16:16:00.233Z,93550.52
2018-03-03T16:18:26.835Z,93560.80
2018-03-03T16:20:53.396Z,93559.88
2018-03-03T16:23:20.011Z,93569.64
2018-03-03T16:25:46.631Z,93568.91
2018-03-03T16:28:13.170Z,93540.88
2018-03-03T16:30:39.788Z,93568.45
2018-03-03T16:33:06.371Z,93572.50
2018-03-03T16:35:32.980Z,93559.34
2018-03-03T16:37:59.588Z,93569.58
2018-03-03T16:40:26.206Z,93557.77
2018-03-03T16:42:52.836Z,93552.98
2018-03-03T16:45:19.408Z,93555.49
2018-03-03T16:47:46.006Z,93548.34
2018-03-03T16:50:12.645Z,93556.72
2018-03-03T16:52:39.229Z,93548.27
2018-03-03T16:55:05.795Z,93567.28
2018-03-03T16:57:32.473Z,93569.30
2018-03-03T16:59:59.096Z,93556.90
2018-03-03T17:02:25.712Z,93554.84
2018-03-03T17:04:52.268Z,93547.38
2018-03-03T17:07:18.866Z,93552.87
2018-03-03T17:09:45.471Z,93548.22
2018-03-03T17:12:12.026Z,93537.74
2018-03-03T17:14:38.702Z,93538.57
2018-03-03T17:17:05.210Z,93536.73
2018-03-03T17:19:31.844Z,93517.45
2018-03-03T17:21:58.423Z,93531.91
2018-03-03T17:24:25.009Z,93511.70
2018-03-03T17:26:51.588Z,93516.66
2018-03-03T17:29:18.200Z,93527.48
2018-03-03T17:31:44.761Z,93513.05
2018-03-03T17:34:11.359Z,93522.49
2018-03-03T17:36:37.999Z,93505.52
2018-03-03T17:39:04.605Z,93516.32
2018-03-03T17:41:31.166Z,93520.07
2018-03-03T17:43:57.774Z,93528.94
2018-03-03T17:46:24.410Z,93535.95
2018-03-03T17:48:50.941Z,93530.51
2018-03-03T17:51:17.498Z,93524.23
2018-03-03T17:53:44.101Z,93525.85
2018-03-03T17:56:10.663Z,93529.89
2018-03-03T17:58:37.276Z,93519.89
2018-03-03T18:01:03.837Z,93521.01
2018-03-03T18:03:30.401Z,93532.34
2018-03-03T18:05:57.017Z,93532.56
2018-03-03T18:08:23.584Z,93521.27
2018-03-03T18:10:50.239Z,93535.53
2018-03-03T18:13:16.811Z,93526.25
2018-03-03T18:15:43.369Z,93520.87
2018-03-03T18:18:09.979Z,93499.23
2018-03-03T18:20:36.563Z,93508.51
2018-03-03T18:23:03.220Z,93505.88
2018-03-03T18:25:29.786Z,93505.88
2018-03-03T18:27:56.350Z,93509.17
2018-03-03T18:30:22.991Z,93503.85
2018-03-03T18:32:49.597Z,93501.16
2018-03-03T18:35:16.161Z,93498.08
2018-03-03T18:37:42.799Z,93504.02
2018-03-03T18:40:09.413Z,93513.70
2018-03-03T18:42:35.970Z,93509.80
2018-03-03T18:45:02.561Z,93501.29
2018-03-03T18:47:29.164Z,93505.21
2018-03-03T18:49:55.771Z,93511.21
2018-03-03T18:52:22.333Z,93505.27
2018-03-03T18:54:48.957Z,93521.34
2018-03-03T18:57:15.518Z,93519.80
2018-03-03T18:59:42.116Z,93510.77
2018-03-03T19:02:08.677Z,93509.72
2018-03-03T19:04:35.293Z,93504.96
2018-03-03T19:07:01.861Z,93518.31
2018-03-03T19:09:28.466Z,93519.89
2018-03-03T19:11:55.067Z,93508.66
2018-03-03T19:14:21.690Z,93507.37
2018-03-03T19:16:48.258Z,93520.33
2018-03-03T19:19:24.950Z,93524.93
2018-03-03T19:21:56.079Z,93521.17
2018-03-03T19:24:22.714Z,93531.66
2018-03-03T19:26:49.346Z,93539.67
2018-03-03T19:29:15.908Z,93544.95
2018-03-03T19:31:42.480Z,93530.64
2018-03-03T19:34:09.104Z,93538.05
2018-03-03T19:36:35.674Z,93531.09
2018-03-03T19:39:02.402Z,93524.03
2018-03-03T19:41:29.008Z,93541.48
2018-03-03T19:43:55.644Z,93541.64
2018-03-03T19:46:22.248Z,93528.63
2018-03-03T19:48:48.884Z,93534.17
2018-03-03T19:51:15.503Z,93539.26
2018-03-03T19:53:42.074Z,93545.59
2018-03-03T19:56:08.811Z,93557.08
2018-03-03T19:58:35.390Z,93555.55
2018-03-03T20:01:02.029Z,93539.87
2018-03-03T20:03:28.631Z,93549.38
2018-03-03T20:05:55.328Z,93568.77
2018-03-03T20:08:21.955Z,93559.52
2018-03-03T20:10:48.520Z,93554.43
2018-03-03T20:13:15.132Z,93539.53
2018-03-03T20:15:41.702Z,93537.41
2018-03-03T20:18:08.337Z,93543.67
2018-03-03T20:20:34.906Z,93538.94
2018-03-03T20:23:01.510Z,93545.83
2018-03-03T20:25:28.199Z,93546.84
2018-03-03T20:27:54.806Z,93545.51
2018-03-03T20:30:21.364Z,93533.50
2018-03-03T20:32:48.022Z,93542.81
2018-03-03T20:35:14.631Z,93543.41
2018-03-03T20:37:41.223Z,93545.28
2018-03-03T20:40:08.049Z,93549.70
2018-03-03T20:42:34.622Z,93550.03
2018-03-03T20:45:01.342Z,93543.14
2018-03-03T20:47:27.902Z,93534.88
2018-03-03T20:49:54.523Z,93497.13
2018-03-03T20:52:21.153Z,93517.58
2018-03-03T20:54:47.755Z,93523.49
2018-03-03T20:57:14.358Z,93541.34
2018-03-03T20:59:40.944Z,93518.61
2018-03-03T21:02:07.948Z,93514.19
2018-03-03T21:04:34.548Z,93489.74
2018-03-03T21:07:01.122Z,93506.08
2018-03-03T21:09:27.791Z,93508.44
2018-03-03T21:11:54.404Z,93504.79
2018-03-03T21:14:21.008Z,93505.94
2018-03-03T21:16:47.576Z,93493.41
2018-03-03T21:19:14.183Z,93505.67
2018-03-03T21:21:40.857Z,93515.66
2018-03-03T21:24:07.469Z,93477.45
2018-03-03T21:26:34.079Z,93491.37
2018-03-03T21:29:00.749Z,93463.61
2018-03-03T21:31:27.326Z,93504.30
2018-03-03T21:33:54.002Z,93463.02
2018-03-03T21:36:20.537Z,93489.42
2018-03-03T21:38:47.232Z,93469.80
2018-03-03T21:41:13.845Z,93484.77
2018-03-03T21:43:40.457Z,93520.61
2018-03-03T21:46:07.074Z,93504.05
2018-03-03T21:48:33.734Z,93468.70
2018-03-03T21:51:00.399Z,93488.34
2018-03-03T21:53:27.013Z,93455.89
2018-03-03T21:55:53.603Z,93489.52
2018-03-03T21:58:20.259Z,93455.42
2018-03-03T22:00:46.929Z,93418.22
2018-03-03T22:03:13.492Z,93437.87
2018-03-03T22:05:40.103Z,93462.00
2018-03-03T22:08:06.681Z,93458.14
2018-03-03T22:10:33.287Z,93455.64
2018-03-03T22:12:59.864Z,93437.47
2018-03-03T22:15:26.469Z,93472.98
2018-03-03T22:17:53.057Z,93487.44
2018-03-03T22:20:19.671Z,93436.88
2018-03-03T22:22:46.284Z,93511.39
2018-03-03T22:25:12.888Z,93509.81
2018-03-03T22:27:39.501Z,93472.13
2018-03-03T22:30:06.066Z,93496.36
2018-03-03T22:32:32.746Z,93476.00
2018-03-03T22:34:59.318Z,93461.39
2018-03-03T22:37:25.958Z,93466.22
2018-03-03T22:39:52.566Z,93472.84
2018-03-03T22:42:19.169Z,93488.26
2018-03-03T22:44:45.845Z,93414.03
2018-03-03T22:47:12.411Z,93462.08
2018-03-03T22:49:39.034Z,93403.78
2018-03-03T22:52:05.703Z,93419.53
2018-03-03T22:54:32.337Z,93431.59
2018-03-03T22:56:58.924Z,93424.23
2018-03-03T22:59:25.545Z,93423.01
2018-03-03T23:01:52.135Z,93422.91
2018-03-03T23:04:18.736Z,93417.42
2018-03-03T23:06:45.340Z,93427.78
2018-03-03T23:09:11.953Z,93426.61
2018-03-03T23:11:38.679Z,93400.91
2018-03-03T23:14:05.274Z,93416.05
2018-03-03T23:16:31.874Z,93419.70
2018-03-03T23:18:58.532Z,93420.50
2018-03-03T23:21:25.125Z,93422.63
2018-03-03T23:23:51.733Z,93427.29
2018-03-03T23:26:18.329Z,93400.80
2018-03-03T23:28:44.950Z,93396.84
2018-03-03T23:31:11.599Z,93386.19
2018-03-03T23:33:38.186Z,93385.59
2018-03-03T23:36:04.814Z,93410.42
2018-03-03T23:38:31.411Z,93389.77
2018-03-03T23:40:57.985Z,93385.70
2018-03-03T23:43:24.625Z,93378.30
2018-03-03T23:45:51.202Z,93379.08
2018-03-03T23:48:17.774Z,93377.74
2018-03-03T23:50:44.407Z,93368.59
2018-03-03T23:53:11.015Z,93360.03
2018-03-03T23:55:37.638Z,93362.78
2018-03-03T23:58:04.282Z,93356.84
